Cambridge, Minnesota
Current Conditions -  °F | °C
As of 6:35 PM on Sunday 21 Dec 2014 (Local Time) from KCBG Reporting Station
Unknown Precip Unknown Precip  
Wind Chill:   Ceiling: 400
Heat Index:   Visibility: 1.5mi
Dew Point: -1°   Wind: 5mph
Humidity: 81%   Direction: 140°SE
Pressure: 29.71"   Gusts: NA
Location:  45.57°N, 93.22°W
Report Text: KCBG 220035Z AUTO 14004KT 1 1/2SM UP OVC004 02/M01 A2971 RMK AO2
Loading
Personal Weather Stations






























Interactive Weather Map New forecast layout! Learn more

10-Day Weather Forecast

Advertisements
Track Severe Weather on mobile